createdAt,value
2022-09-04T00:00:35.205Z,99.90
2022-09-04T00:03:34.338Z,99.90
2022-09-04T00:06:08.252Z,99.90
2022-09-04T00:08:40.224Z,99.90
2022-09-04T00:11:45.508Z,99.90
2022-09-04T00:14:22.340Z,99.90
2022-09-04T00:17:06.527Z,99.90
2022-09-04T00:19:59.775Z,99.90
2022-09-04T00:22:35.862Z,99.90
2022-09-04T00:25:28.914Z,99.90
2022-09-04T00:28:25.518Z,99.90
2022-09-04T00:31:21.623Z,99.90
2022-09-04T00:33:57.985Z,99.90
2022-09-04T00:36:28.695Z,99.90
2022-09-04T00:39:08.727Z,99.90
2022-09-04T00:42:05.897Z,99.90
2022-09-04T00:45:01.318Z,99.90
2022-09-04T00:47:39.701Z,99.90
2022-09-04T00:50:17.577Z,99.90
2022-09-04T00:53:06.125Z,99.90
2022-09-04T00:55:57.775Z,99.90
2022-09-04T00:59:03.364Z,99.90
2022-09-04T01:01:33.489Z,99.90
2022-09-04T01:04:24.496Z,99.90
2022-09-04T01:07:18.346Z,99.90
2022-09-04T01:10:12.764Z,99.90
2022-09-04T01:12:45.867Z,99.90
2022-09-04T01:15:28.059Z,99.90
2022-09-04T01:18:13.462Z,99.90
2022-09-04T01:21:15.142Z,99.90
2022-09-04T01:24:12.228Z,99.90
2022-09-04T01:27:22.714Z,99.90
2022-09-04T01:30:12.122Z,99.90
2022-09-04T01:33:20.093Z,99.90
2022-09-04T01:36:30.229Z,99.90
2022-09-04T01:39:06.383Z,99.90
2022-09-04T01:41:44.934Z,99.90
2022-09-04T01:44:13.387Z,99.90
2022-09-04T01:47:23.906Z,99.90
2022-09-04T01:50:08.540Z,99.90
2022-09-04T01:53:02.807Z,99.90
2022-09-04T01:55:58.175Z,99.90
2022-09-04T01:58:46.713Z,99.90
2022-09-04T02:01:28.640Z,99.90
2022-09-04T02:04:18.537Z,99.90
2022-09-04T02:06:51.729Z,99.90
2022-09-04T02:09:37.674Z,99.90
2022-09-04T02:12:27.604Z,99.90
2022-09-04T02:15:18.180Z,99.90
2022-09-04T02:18:34.754Z,99.90
2022-09-04T02:21:12.290Z,99.90
2022-09-04T02:24:09.265Z,99.90
2022-09-04T02:26:55.210Z,99.90
2022-09-04T02:30:03.740Z,99.90
2022-09-04T02:32:39.036Z,99.90
2022-09-04T02:35:17.505Z,99.90
2022-09-04T02:38:11.877Z,99.90
2022-09-04T02:40:45.866Z,99.90
2022-09-04T02:43:42.526Z,99.90
2022-09-04T02:46:43.262Z,99.90
2022-09-04T02:49:29.818Z,99.90
2022-09-04T02:52:37.712Z,99.90
2022-09-04T02:55:11.784Z,99.90
2022-09-04T02:58:16.511Z,99.90
2022-09-04T03:00:58.058Z,99.90
2022-09-04T03:03:34.823Z,99.90
2022-09-04T03:06:14.430Z,99.90
2022-09-04T03:08:53.415Z,99.90
2022-09-04T03:11:56.072Z,99.90
2022-09-04T03:14:47.528Z,99.90
2022-09-04T03:17:26.284Z,99.90
2022-09-04T03:20:04.817Z,99.90
2022-09-04T03:22:44.314Z,99.90
2022-09-04T03:25:48.275Z,99.90
2022-09-04T03:28:44.034Z,99.90
2022-09-04T03:31:31.935Z,99.90
2022-09-04T03:34:09.718Z,99.90
2022-09-04T03:37:07.463Z,99.90
2022-09-04T03:39:37.534Z,99.90
2022-09-04T03:42:33.629Z,99.90
2022-09-04T03:45:24.222Z,99.90
2022-09-04T03:48:04.179Z,99.90
2022-09-04T03:50:54.838Z,99.90
2022-09-04T03:53:40.202Z,99.90
2022-09-04T03:56:15.922Z,99.90
2022-09-04T03:59:02.109Z,99.90
2022-09-04T04:01:45.536Z,99.90
2022-09-04T04:04:44.390Z,99.90
2022-09-04T04:07:51.891Z,99.90
2022-09-04T04:10:37.691Z,99.90
2022-09-04T04:13:13.631Z,99.90
2022-09-04T04:16:08.881Z,99.90
2022-09-04T04:18:57.817Z,99.90
2022-09-04T04:22:00.188Z,99.90
2022-09-04T04:24:41.168Z,99.90
2022-09-04T04:27:32.696Z,99.90
2022-09-04T04:30:04.505Z,99.90
2022-09-04T04:32:59.210Z,99.90
2022-09-04T04:35:54.870Z,99.90
2022-09-04T04:38:40.867Z,99.90
2022-09-04T04:41:59.308Z,99.90
2022-09-04T04:45:11.473Z,99.90
2022-09-04T04:48:15.801Z,99.90
2022-09-04T04:51:23.588Z,99.90
2022-09-04T04:54:34.690Z,99.90
2022-09-04T04:57:53.644Z,99.90
2022-09-04T05:01:05.232Z,99.90
2022-09-04T05:04:00.479Z,99.90
2022-09-04T05:07:01.060Z,99.90
2022-09-04T05:09:56.348Z,99.90
2022-09-04T05:12:54.321Z,99.90
2022-09-04T05:15:38.000Z,99.90
2022-09-04T05:18:26.988Z,99.90
2022-09-04T05:21:08.207Z,99.90
2022-09-04T05:24:04.303Z,99.90
2022-09-04T05:26:47.680Z,99.90
2022-09-04T05:29:33.547Z,99.90
2022-09-04T05:32:36.382Z,99.90
2022-09-04T05:35:35.291Z,99.90
2022-09-04T05:38:51.281Z,99.90
2022-09-04T05:41:39.170Z,99.90
2022-09-04T05:44:33.951Z,99.90
2022-09-04T05:47:13.797Z,99.90
2022-09-04T05:50:14.921Z,99.90
2022-09-04T05:53:23.084Z,99.90
2022-09-04T05:56:10.490Z,99.90
2022-09-04T05:58:58.449Z,99.90
2022-09-04T06:01:51.949Z,99.90
2022-09-04T06:05:06.362Z,99.90
2022-09-04T06:08:10.131Z,99.90
2022-09-04T06:11:03.430Z,99.90
2022-09-04T06:13:30.388Z,99.90
2022-09-04T06:19:50.878Z,99.90
2022-09-04T06:22:29.851Z,99.90
2022-09-04T06:25:34.006Z,99.90
2022-09-04T06:28:25.325Z,99.90
2022-09-04T06:30:59.400Z,99.90
2022-09-04T06:33:48.122Z,99.90
2022-09-04T06:36:44.271Z,99.90
2022-09-04T06:39:49.035Z,99.90
2022-09-04T06:42:49.692Z,99.90
2022-09-04T06:45:24.787Z,99.90
2022-09-04T06:48:01.218Z,99.90
2022-09-04T06:50:57.062Z,99.90
2022-09-04T06:53:38.948Z,99.90
2022-09-04T06:56:20.714Z,99.90
2022-09-04T06:59:14.020Z,99.90
2022-09-04T07:01:43.799Z,99.90
2022-09-04T07:04:24.813Z,99.90
2022-09-04T07:07:17.294Z,99.90
2022-09-04T07:10:01.508Z,99.90
2022-09-04T07:12:37.752Z,99.90
2022-09-04T07:15:28.854Z,99.90
2022-09-04T07:18:56.829Z,99.90
2022-09-04T07:21:44.655Z,99.90
2022-09-04T07:24:35.265Z,99.90
2022-09-04T07:27:15.976Z,99.90
2022-09-04T07:29:49.410Z,99.90
2022-09-04T07:32:29.571Z,99.90
2022-09-04T07:35:09.922Z,99.90
2022-09-04T07:38:14.709Z,99.90
2022-09-04T07:41:04.292Z,99.90
2022-09-04T07:43:50.201Z,99.90
2022-09-04T07:46:44.557Z,99.90
2022-09-04T07:49:30.429Z,99.90
2022-09-04T07:52:18.598Z,99.90
2022-09-04T07:55:10.797Z,99.90
2022-09-04T07:57:57.031Z,99.90
2022-09-04T08:00:42.596Z,99.90
2022-09-04T08:03:53.692Z,99.90
2022-09-04T08:07:00.533Z,99.90
2022-09-04T08:09:45.475Z,99.90
2022-09-04T08:12:30.675Z,99.90
2022-09-04T08:15:22.137Z,99.90
2022-09-04T08:18:08.835Z,99.90
2022-09-04T08:21:04.613Z,99.90
2022-09-04T08:24:14.640Z,99.90
2022-09-04T08:27:03.415Z,99.90
2022-09-04T08:29:54.259Z,99.90
2022-09-04T08:32:50.973Z,99.90
2022-09-04T08:35:20.722Z,99.90
2022-09-04T08:37:59.679Z,99.90
2022-09-04T08:40:42.907Z,99.90
2022-09-04T08:43:26.005Z,99.90
2022-09-04T08:46:28.692Z,99.90
2022-09-04T08:49:09.835Z,99.90
2022-09-04T08:51:59.824Z,99.90
2022-09-04T08:55:04.756Z,99.90
2022-09-04T08:58:13.195Z,99.90
2022-09-04T09:01:34.529Z,99.90
2022-09-04T09:04:33.245Z,99.90
2022-09-04T09:07:19.638Z,99.90
2022-09-04T09:10:15.390Z,99.90
2022-09-04T09:13:22.107Z,99.90
2022-09-04T09:16:04.142Z,99.90
2022-09-04T09:18:40.603Z,99.90
2022-09-04T09:21:48.129Z,99.90
2022-09-04T09:24:45.560Z,99.90
2022-09-04T09:27:31.518Z,99.90
2022-09-04T09:30:16.201Z,99.90
2022-09-04T09:33:07.534Z,99.90
2022-09-04T09:35:58.321Z,99.90
2022-09-04T09:39:02.404Z,99.90
2022-09-04T09:41:41.998Z,99.90
2022-09-04T09:44:22.067Z,99.90
2022-09-04T09:46:59.372Z,99.90
2022-09-04T09:49:35.438Z,99.90
2022-09-04T09:52:14.529Z,99.90
2022-09-04T09:55:15.783Z,99.90
2022-09-04T09:58:08.677Z,99.90
2022-09-04T10:01:08.594Z,99.90
2022-09-04T10:04:18.592Z,99.90
2022-09-04T10:07:37.360Z,99.90
2022-09-04T10:10:22.498Z,99.90
2022-09-04T10:13:28.093Z,99.90
2022-09-04T10:16:40.356Z,99.90
2022-09-04T10:19:13.836Z,99.90
2022-09-04T10:21:59.236Z,99.90
2022-09-04T10:25:09.726Z,99.90
2022-09-04T10:27:46.911Z,99.90
2022-09-04T10:30:38.076Z,99.90
2022-09-04T10:33:26.753Z,99.90
2022-09-04T10:36:13.406Z,99.90
2022-09-04T10:39:14.338Z,99.90
2022-09-04T10:42:07.228Z,99.90
2022-09-04T10:44:59.808Z,99.90
2022-09-04T10:47:55.232Z,99.90
2022-09-04T10:50:46.444Z,99.90
2022-09-04T10:53:53.118Z,99.90
2022-09-04T10:56:32.782Z,99.90
2022-09-04T10:59:23.271Z,99.90
2022-09-04T11:02:33.469Z,99.90
2022-09-04T11:05:24.924Z,99.90
2022-09-04T11:08:06.021Z,99.90
2022-09-04T11:10:41.994Z,99.90
2022-09-04T11:13:35.587Z,99.90
2022-09-04T11:16:44.066Z,99.90
2022-09-04T11:19:25.571Z,99.90
2022-09-04T11:22:08.943Z,99.90
2022-09-04T11:25:13.371Z,99.90
2022-09-04T11:27:59.530Z,99.90
2022-09-04T11:30:57.749Z,99.90
2022-09-04T11:33:46.796Z,99.90
2022-09-04T11:36:49.339Z,99.90
2022-09-04T11:39:41.790Z,99.60
2022-09-04T11:42:29.912Z,99.60
2022-09-04T11:45:04.548Z,99.50
2022-09-04T11:48:10.500Z,98.50
2022-09-04T11:50:56.760Z,98.90
2022-09-04T11:54:00.423Z,98.80
2022-09-04T11:56:47.624Z,99.10
2022-09-04T11:59:51.414Z,97.40
2022-09-04T12:02:39.512Z,97.90
2022-09-04T12:05:43.579Z,99.60
2022-09-04T12:08:26.231Z,97.30
2022-09-04T12:11:33.128Z,97.00
2022-09-04T12:14:23.532Z,96.30
2022-09-04T12:16:59.613Z,95.80
2022-09-04T12:19:42.467Z,95.80
2022-09-04T12:22:36.650Z,94.70
2022-09-04T12:25:55.655Z,94.40
2022-09-04T12:28:41.761Z,93.60
2022-09-04T12:31:51.185Z,95.40
2022-09-04T12:34:44.580Z,96.20
2022-09-04T12:37:47.638Z,95.80
2022-09-04T12:41:02.364Z,96.70
2022-09-04T12:43:54.888Z,95.40
2022-09-04T12:46:57.627Z,94.90
2022-09-04T12:49:33.131Z,93.10
2022-09-04T12:52:42.235Z,92.00
2022-09-04T12:55:39.569Z,92.20
2022-09-04T12:58:48.847Z,92.00
2022-09-04T13:01:35.266Z,92.20
2022-09-04T13:04:22.528Z,90.40
2022-09-04T13:07:01.814Z,90.80
2022-09-04T13:09:56.035Z,90.30
2022-09-04T13:12:22.672Z,91.40
2022-09-04T13:15:11.931Z,92.00
2022-09-04T13:17:53.507Z,92.60
2022-09-04T13:20:21.118Z,92.20
2022-09-04T13:22:54.004Z,92.70
2022-09-04T13:26:04.160Z,91.30
2022-09-04T13:29:15.861Z,90.60
2022-09-04T13:32:29.229Z,90.00
2022-09-04T13:35:19.248Z,88.70
2022-09-04T13:38:24.657Z,88.20
2022-09-04T13:41:30.176Z,90.10
2022-09-04T13:44:22.021Z,91.00
2022-09-04T13:47:00.997Z,90.60
2022-09-04T13:49:56.582Z,90.20
2022-09-04T13:52:55.763Z,90.80
2022-09-04T13:55:33.559Z,88.40
2022-09-04T13:58:51.602Z,90.70
2022-09-04T14:01:28.533Z,90.00
2022-09-04T14:04:04.860Z,90.70
2022-09-04T14:06:33.256Z,91.40
2022-09-04T14:09:04.655Z,91.10
2022-09-04T14:11:59.928Z,90.80
2022-09-04T14:14:45.913Z,91.50
2022-09-04T14:17:15.381Z,92.20
2022-09-04T14:20:05.705Z,91.70
2022-09-04T14:22:58.162Z,91.60
2022-09-04T14:25:43.238Z,92.10
2022-09-04T14:28:38.713Z,92.30
2022-09-04T14:31:34.173Z,93.30
2022-09-04T14:34:21.299Z,93.40
2022-09-04T14:37:40.109Z,93.80
2022-09-04T14:40:15.420Z,94.40
2022-09-04T14:43:12.471Z,94.60
2022-09-04T14:46:09.696Z,95.00
2022-09-04T14:48:44.566Z,94.80
2022-09-04T14:51:34.542Z,93.30
2022-09-04T14:54:02.580Z,92.20
2022-09-04T14:56:47.170Z,91.50
2022-09-04T14:59:34.067Z,90.80
2022-09-04T15:02:30.210Z,90.00
2022-09-04T15:05:16.072Z,89.80
2022-09-04T15:07:42.758Z,89.40
2022-09-04T15:10:31.817Z,90.40
2022-09-04T15:13:07.522Z,87.90
2022-09-04T15:15:47.187Z,89.40
2022-09-04T15:18:29.228Z,89.80
2022-09-04T15:21:06.064Z,89.70
2022-09-04T15:23:46.053Z,90.40
2022-09-04T15:26:37.937Z,90.80
2022-09-04T15:29:22.908Z,91.10
2022-09-04T15:32:00.552Z,88.40
2022-09-04T15:34:28.812Z,86.50
2022-09-04T15:37:10.657Z,83.80
2022-09-04T15:39:46.615Z,79.00
2022-09-04T15:42:30.221Z,78.80
2022-09-04T15:45:00.817Z,75.90
2022-09-04T15:47:38.840Z,74.00
2022-09-04T15:50:21.492Z,71.80
2022-09-04T15:53:09.591Z,67.70
2022-09-04T15:55:41.849Z,70.40
2022-09-04T15:58:14.760Z,74.80
2022-09-04T16:01:09.686Z,75.50
2022-09-04T16:03:43.567Z,79.60
2022-09-04T16:06:33.222Z,84.20
2022-09-04T16:09:17.411Z,87.90
2022-09-04T16:12:10.546Z,89.70
2022-09-04T16:15:19.386Z,91.10
2022-09-04T16:17:54.556Z,91.80
2022-09-04T16:20:35.259Z,90.60
2022-09-04T16:23:10.696Z,87.60
2022-09-04T16:25:52.888Z,85.50
2022-09-04T16:28:41.476Z,86.00
2022-09-04T16:31:31.342Z,87.80
2022-09-04T16:34:19.119Z,84.60
2022-09-04T16:36:51.052Z,82.20
2022-09-04T16:39:30.307Z,81.70
2022-09-04T16:42:10.664Z,82.50
2022-09-04T16:44:45.390Z,83.60
2022-09-04T16:47:41.015Z,84.30
2022-09-04T16:50:37.767Z,86.50
2022-09-04T16:53:29.029Z,89.90
2022-09-04T16:56:12.921Z,90.80
2022-09-04T16:59:00.935Z,91.60
2022-09-04T17:01:35.499Z,91.50
2022-09-04T17:04:30.171Z,92.40
2022-09-04T17:07:35.403Z,93.40
2022-09-04T17:10:26.938Z,94.40
2022-09-04T17:13:17.911Z,95.90
2022-09-04T17:16:28.890Z,97.50
2022-09-04T17:18:55.760Z,99.20
2022-09-04T17:27:16.521Z,99.90
2022-09-04T17:29:12.475Z,99.90
2022-09-04T17:29:15.594Z,99.90
2022-09-04T17:30:55.393Z,99.90
2022-09-04T17:40:36.610Z,99.90
2022-09-04T17:40:38.112Z,99.90
2022-09-04T17:41:34.458Z,99.90
2022-09-04T17:42:35.081Z,99.90
2022-09-04T17:45:25.703Z,99.90
2022-09-04T17:48:06.102Z,99.90
2022-09-04T17:50:48.864Z,99.90
2022-09-04T17:53:33.726Z,99.90
2022-09-04T17:56:23.171Z,99.90
2022-09-04T17:58:54.538Z,99.90
2022-09-04T18:02:01.536Z,99.90
2022-09-04T18:04:35.294Z,99.90
2022-09-04T18:07:51.017Z,99.90
2022-09-04T18:10:32.436Z,99.90
2022-09-04T18:13:36.138Z,99.90
2022-09-04T18:16:40.607Z,99.90
2022-09-04T18:19:31.287Z,99.90
2022-09-04T18:22:25.903Z,99.90
2022-09-04T18:24:59.946Z,99.90
2022-09-04T18:28:16.328Z,99.90
2022-09-04T18:37:10.919Z,99.90
2022-09-04T18:37:16.259Z,99.90
2022-09-04T18:37:16.431Z,99.90
2022-09-04T18:40:28.047Z,99.90
2022-09-04T18:50:29.608Z,99.90
2022-09-04T18:50:30.121Z,99.90
2022-09-04T18:50:47.144Z,99.90
2022-09-04T18:52:20.510Z,99.90
2022-09-04T18:55:00.786Z,99.90
2022-09-04T18:57:33.548Z,99.90
2022-09-04T19:00:22.714Z,99.90
2022-09-04T19:03:10.693Z,99.90
2022-09-04T19:05:44.991Z,99.90
2022-09-04T19:08:32.967Z,99.90
2022-09-04T19:11:20.749Z,99.90
2022-09-04T19:14:15.670Z,99.90
2022-09-04T19:17:01.179Z,99.90
2022-09-04T19:19:40.811Z,99.90
2022-09-04T19:22:19.678Z,99.90
2022-09-04T19:25:35.551Z,99.90
2022-09-04T19:28:24.084Z,99.90
2022-09-04T19:31:07.596Z,99.90
2022-09-04T19:33:46.479Z,99.90
2022-09-04T19:36:28.265Z,99.90
2022-09-04T19:45:55.353Z,99.90
2022-09-04T19:46:17.658Z,99.90
2022-09-04T19:46:19.487Z,99.90
2022-09-04T19:47:59.808Z,99.90
2022-09-04T19:53:22.876Z,99.90
2022-09-04T19:53:49.922Z,99.90
2022-09-04T19:56:45.729Z,99.90
2022-09-04T19:59:42.115Z,99.90
2022-09-04T20:02:31.927Z,99.90
2022-09-04T20:05:03.182Z,99.90
2022-09-04T20:08:00.637Z,99.90
2022-09-04T20:10:58.857Z,99.90
2022-09-04T20:13:29.126Z,99.90
2022-09-04T20:16:19.017Z,99.90
2022-09-04T20:19:11.240Z,99.90
2022-09-04T20:21:49.013Z,99.90
2022-09-04T20:24:41.437Z,99.90
2022-09-04T20:27:22.612Z,99.90
2022-09-04T20:29:59.866Z,99.90
2022-09-04T20:32:56.031Z,99.90
2022-09-04T20:35:41.392Z,99.90
2022-09-04T20:38:43.089Z,99.90
2022-09-04T20:41:42.631Z,99.90
2022-09-04T20:44:21.308Z,99.90
2022-09-04T20:52:50.365Z,99.90
2022-09-04T20:52:53.857Z,99.90
2022-09-04T20:53:47.014Z,99.90
2022-09-04T20:59:32.206Z,99.90
2022-09-04T21:03:08.102Z,99.90
2022-09-04T21:03:19.143Z,99.90
2022-09-04T21:06:11.505Z,99.90
2022-09-04T21:08:42.891Z,99.90
2022-09-04T21:11:39.246Z,99.90
2022-09-04T21:14:27.418Z,99.90
2022-09-04T21:17:35.026Z,99.90
2022-09-04T21:20:59.212Z,99.90
2022-09-04T21:24:03.694Z,99.90
2022-09-04T21:26:58.375Z,99.90
2022-09-04T21:29:52.497Z,99.90
2022-09-04T21:32:27.775Z,99.90
2022-09-04T21:35:24.146Z,99.90
2022-09-04T21:38:15.969Z,99.90
2022-09-04T21:40:51.208Z,99.90
2022-09-04T21:43:19.468Z,99.90
2022-09-04T21:46:13.209Z,99.90
2022-09-04T21:49:07.683Z,99.90
2022-09-04T21:51:54.693Z,99.90
2022-09-04T21:59:34.068Z,99.90
2022-09-04T22:02:35.463Z,99.90
2022-09-04T22:02:40.619Z,99.90
2022-09-04T22:04:27.913Z,99.90
2022-09-04T22:09:00.216Z,99.90
2022-09-04T22:13:29.849Z,99.90
2022-09-04T22:13:41.991Z,99.90
2022-09-04T22:16:35.317Z,99.90
2022-09-04T22:19:34.402Z,99.90
2022-09-04T22:22:10.447Z,99.90
2022-09-04T22:25:06.339Z,99.90
2022-09-04T22:28:07.663Z,99.90
2022-09-04T22:31:13.952Z,99.90
2022-09-04T22:34:15.560Z,99.90
2022-09-04T22:37:05.173Z,99.90
2022-09-04T22:40:02.904Z,99.90
2022-09-04T22:43:04.464Z,99.90
2022-09-04T22:45:46.228Z,99.90
2022-09-04T22:48:31.513Z,99.90
2022-09-04T22:51:16.766Z,99.90
2022-09-04T22:54:12.541Z,99.90
2022-09-04T22:57:03.688Z,99.90
2022-09-04T22:59:54.470Z,99.90
2022-09-04T23:03:07.006Z,99.90
2022-09-04T23:05:38.932Z,99.90
2022-09-04T23:13:54.482Z,99.90
2022-09-04T23:13:58.565Z,99.90
2022-09-04T23:14:18.450Z,99.90
2022-09-04T23:17:00.819Z,99.90
2022-09-04T23:24:42.486Z,99.90
2022-09-04T23:26:43.773Z,99.90
2022-09-04T23:26:49.025Z,99.90
2022-09-04T23:29:44.605Z,99.90
2022-09-04T23:32:22.453Z,99.90
2022-09-04T23:35:14.896Z,99.90
2022-09-04T23:38:04.220Z,99.90
2022-09-04T23:40:45.255Z,99.90
2022-09-04T23:43:43.069Z,99.90
2022-09-04T23:46:24.196Z,99.90
2022-09-04T23:49:32.143Z,99.90
2022-09-04T23:52:27.228Z,99.90
2022-09-04T23:55:26.677Z,99.90
2022-09-04T23:58:51.532Z,99.90
